Time;durP1;ratioP1;P1;durP2;ratioP2;P2;SDS_P1;SDS_P2;PMS_P1;PMS_P2;Temp;Humidity;BMP_temperature;BMP_pressure;BME280_temperature;BME280_humidity;BME280_pressure;Samples;Min_cycle;Max_cycle;Signal;HPM_P1;HPM_P2
2022/04/29 00:00:47;;;;;;;7.15;6.07;;;;;;;;;;5088051;28;20063;-59
2022/04/29 00:03:45;;;;;;;5.95;4.90;;;;;;;;;;5130524;28;20035;-59
2022/04/29 00:06:42;;;;;;;5.60;5.03;;;;;;;;;;5130166;28;20024;-59
2022/04/29 00:09:32;;;;;;;8.68;6.10;;;;;;;;;;5129485;28;20031;-58
2022/04/29 00:15:05;;;;;;;6.20;5.45;;;;;;;;;;5073857;28;20179;-59
2022/04/29 00:18:01;;;;;;;8.27;5.25;;;;;;;;;;5130256;28;20057;-59
2022/04/29 00:20:31;;;;;;;7.07;6.20;;;;;;;;;;5129743;28;20035;-58
2022/04/29 00:26:38;;;;;;;7.10;6.25;;;;;;;;;;5066639;28;20029;-58
2022/04/29 00:32:04;;;;;;;7.55;6.38;;;;;;;;;;5114966;28;20307;-59
2022/04/29 00:34:58;;;;;;;8.90;6.18;;;;;;;;;;5129797;28;20338;-59
2022/04/29 00:40:42;;;;;;;6.82;5.97;;;;;;;;;;5129014;28;20077;-58
2022/04/29 00:43:27;;;;;;;7.57;6.57;;;;;;;;;;5129608;28;20468;-59
2022/04/29 00:46:07;;;;;;;10.50;7.25;;;;;;;;;;5108472;28;20058;-58
2022/04/29 00:52:17;;;;;;;11.18;6.30;;;;;;;;;;5104782;28;20035;-58
2022/04/29 00:55:12;;;;;;;12.02;7.20;;;;;;;;;;5128975;28;20031;-59
2022/04/29 00:58:06;;;;;;;7.28;6.50;;;;;;;;;;5128684;28;20057;-59
2022/04/29 01:03:42;;;;;;;9.65;6.47;;;;;;;;;;5128977;28;20038;-59
2022/04/29 01:06:48;;;;;;;9.02;7.47;;;;;;;;;;5129236;28;20039;-58
2022/04/29 01:09:29;;;;;;;6.90;5.45;;;;;;;;;;5126356;28;20162;-58
2022/04/29 01:12:14;;;;;;;8.05;7.25;;;;;;;;;;5104774;28;20099;-57
2022/04/29 01:18:00;;;;;;;7.25;6.10;;;;;;;;;;5045887;28;20029;-58
2022/04/29 01:23:28;;;;;;;10.20;7.10;;;;;;;;;;5053147;28;20144;-57
2022/04/29 01:26:07;;;;;;;8.13;7.00;;;;;;;;;;5067052;28;20096;-59
2022/04/29 01:29:09;;;;;;;7.20;6.43;;;;;;;;;;5066511;28;20486;-59
2022/04/29 01:32:14;;;;;;;6.45;5.85;;;;;;;;;;5066635;28;20437;-58
2022/04/29 01:35:06;;;;;;;7.30;6.40;;;;;;;;;;5073037;28;20039;-58
2022/04/29 01:37:47;;;;;;;6.80;6.10;;;;;;;;;;5026698;28;20475;-58
2022/04/29 01:43:26;;;;;;;7.80;6.95;;;;;;;;;;5115560;28;20073;-58
2022/04/29 01:46:15;;;;;;;8.88;6.82;;;;;;;;;;5129186;28;20035;-58
2022/04/29 01:49:22;;;;;;;7.95;6.70;;;;;;;;;;5128949;28;20034;-58
2022/04/29 01:51:57;;;;;;;6.40;5.80;;;;;;;;;;5128863;28;20031;-59
2022/04/29 01:54:52;;;;;;;7.97;7.00;;;;;;;;;;5129052;28;20055;-58
2022/04/29 01:57:40;;;;;;;;;;;;;;;;;;;;;
2022/04/29 02:03:30;;;;;;;8.55;7.57;;;;;;;;;;5065819;28;20032;-57
2022/04/29 02:06:09;;;;;;;8.27;7.40;;;;;;;;;;5066299;28;20576;-58
2022/04/29 02:09:04;;;;;;;7.40;6.63;;;;;;;;;;5066320;28;20108;-58
2022/04/29 02:11:40;;;;;;;7.15;6.55;;;;;;;;;;5020664;28;20041;-59
2022/04/29 02:14:24;;;;;;;7.07;6.13;;;;;;;;;;5070314;28;20037;-58
2022/04/29 02:17:19;;;;;;;8.23;7.10;;;;;;;;;;5070770;28;20495;-58
2022/04/29 02:25:57;;;;;;;14.95;9.13;;;;;;;;;;5070544;28;20058;-57
2022/04/29 02:29:08;;;;;;;13.10;10.35;;;;;;;;;;5064232;28;20092;-58
2022/04/29 02:32:11;;;;;;;;;;;;;;;;;;;;;
2022/04/29 02:34:52;;;;;;;13.95;12.50;;;;;;;;;;5067330;28;20063;-58
2022/04/29 02:40:27;;;;;;;11.35;10.05;;;;;;;;;;5090542;28;20078;-58
2022/04/29 02:43:06;;;;;;;12.38;11.10;;;;;;;;;;5090686;28;20039;-58
2022/04/29 02:45:47;;;;;;;11.45;9.60;;;;;;;;;;5090096;28;20056;-58
2022/04/29 02:48:53;;;;;;;9.80;8.80;;;;;;;;;;5073307;28;20032;-58
2022/04/29 02:51:33;;;;;;;8.90;7.57;;;;;;;;;;5081393;28;20024;-58
2022/04/29 02:54:24;;;;;;;9.63;8.65;;;;;;;;;;5071656;28;20037;-58
2022/04/29 02:57:00;;;;;;;;;;;;;;;;;;;;;
2022/04/29 02:59:55;;;;;;;8.10;7.30;;;;;;;;;;5111213;28;20368;-58
2022/04/29 03:02:52;;;;;;;8.13;7.40;;;;;;;;;;5111602;28;20661;-58
2022/04/29 03:08:37;;;;;;;6.95;6.20;;;;;;;;;;5081797;28;20031;-58
2022/04/29 03:11:10;;;;;;;11.20;7.25;;;;;;;;;;5098640;28;20058;-58
2022/04/29 03:17:01;;;;;;;8.07;7.25;;;;;;;;;;5105013;28;20036;-58
2022/04/29 03:19:52;;;;;;;9.27;8.00;;;;;;;;;;5110291;28;20024;-58
2022/04/29 03:22:54;;;;;;;7.82;6.85;;;;;;;;;;5111564;28;20035;-58
2022/04/29 03:25:30;;;;;;;9.45;7.95;;;;;;;;;;5109560;28;20065;-58
2022/04/29 03:28:35;;;;;;;;;;;;;;;;;;;;;
2022/04/29 03:31:19;;;;;;;8.30;6.72;;;;;;;;;;5106449;28;20032;-59
2022/04/29 03:34:29;;;;;;;9.88;7.60;;;;;;;;;;5094799;28;20040;-58
2022/04/29 03:43:05;;;;;;;7.57;6.70;;;;;;;;;;5097368;28;20070;-58
2022/04/29 03:51:23;;;;;;;8.05;7.05;;;;;;;;;;5096749;28;20496;-58
2022/04/29 03:54:17;;;;;;;9.73;7.72;;;;;;;;;;5096779;28;20382;-57
2022/04/29 03:57:13;;;;;;;8.45;6.78;;;;;;;;;;5096657;28;20031;-58
2022/04/29 04:09:43;;;;;;;;;;;;;;;;;;;;;
2022/04/29 04:12:24;;;;;;;8.65;7.47;;;;;;;;;;5071057;28;20051;-58
2022/04/29 04:15:31;;;;;;;;;;;;;;;;;;;;;
2022/04/29 04:21:59;;;;;;;8.82;7.97;;;;;;;;;;5032525;28;20029;-58
2022/04/29 04:24:47;;;;;;;;;;;;;;;;;;;;;
2022/04/29 04:27:19;;;;;;;9.50;8.48;;;;;;;;;;5033945;28;20443;-58
2022/04/29 04:38:53;;;;;;;8.95;8.05;;;;;;;;;;5032386;28;20032;-57
2022/04/29 04:42:03;;;;;;;9.32;8.38;;;;;;;;;;5037734;28;20056;-58
2022/04/29 04:47:28;;;;;;;8.32;7.32;;;;;;;;;;5107428;28;20036;-58
2022/04/29 04:53:16;;;;;;;8.05;7.25;;;;;;;;;;5101728;28;20036;-57
2022/04/29 04:56:06;;;;;;;;;;;;;;;;;;;;;
2022/04/29 04:59:02;;;;;;;10.82;8.15;;;;;;;;;;5115415;28;20433;-58
2022/04/29 05:02:06;;;;;;;9.48;8.55;;;;;;;;;;5115326;28;20090;-56
2022/04/29 05:04:35;;;;;;;9.95;8.38;;;;;;;;;;5014594;28;20475;-58
2022/04/29 05:07:28;;;;;;;10.07;7.93;;;;;;;;;;5032865;28;20033;-58
2022/04/29 05:10:36;;;;;;;;;;;;;;;;;;;;;
2022/04/29 05:13:21;;;;;;;9.25;7.53;;;;;;;;;;5108737;28;20076;-58
2022/04/29 05:19:11;;;;;;;9.35;7.60;;;;;;;;;;5082599;28;20032;-58
2022/04/29 05:22:05;;;;;;;10.13;8.98;;;;;;;;;;5114776;28;20426;-59
2022/04/29 05:28:04;;;;;;;11.77;9.68;;;;;;;;;;5111421;28;20035;-58
2022/04/29 05:30:40;;;;;;;11.73;10.02;;;;;;;;;;5096620;28;20073;-58
2022/04/29 05:36:54;;;;;;;8.15;7.32;;;;;;;;;;5079979;28;20023;-58
2022/04/29 05:42:40;;;;;;;13.18;8.13;;;;;;;;;;5114821;28;20104;-58
2022/04/29 05:45:28;;;;;;;7.45;6.68;;;;;;;;;;5101234;28;20074;-57
2022/04/29 05:48:27;;;;;;;9.73;7.28;;;;;;;;;;5119750;28;20331;-59
2022/04/29 05:51:01;;;;;;;8.63;7.80;;;;;;;;;;5097865;28;20453;-58
2022/04/29 05:54:06;;;;;;;;;;;;;;;;;;;;;
2022/04/29 05:59:42;;;;;;;8.63;7.72;;;;;;;;;;5086689;28;20027;-59
2022/04/29 06:02:29;;;;;;;8.30;7.50;;;;;;;;;;5119636;28;20059;-59
2022/04/29 06:05:19;;;;;;;14.00;8.85;;;;;;;;;;5117818;28;20434;-59
2022/04/29 06:08:19;;;;;;;10.38;9.27;;;;;;;;;;5119099;28;20015;-59
2022/04/29 06:14:19;;;;;;;8.10;7.30;;;;;;;;;;5104933;28;20358;-58
2022/04/29 06:17:07;;;;;;;8.52;7.63;;;;;;;;;;5103854;28;20023;-59
2022/04/29 06:20:04;;;;;;;9.57;7.80;;;;;;;;;;5116210;28;20054;-58
2022/04/29 06:22:52;;;;;;;10.25;7.57;;;;;;;;;;5119190;28;20024;-58
2022/04/29 06:25:45;;;;;;;8.45;6.22;;;;;;;;;;5119418;28;20035;-58
2022/04/29 06:28:21;;;;;;;7.60;6.80;;;;;;;;;;5103510;28;20097;-58
2022/04/29 06:31:03;;;;;;;8.35;6.82;;;;;;;;;;5101419;28;20058;-59
2022/04/29 06:33:56;;;;;;;11.40;7.50;;;;;;;;;;5119614;28;20389;-57
2022/04/29 06:36:38;;;;;;;8.18;6.53;;;;;;;;;;5075076;28;20594;-58
2022/04/29 06:39:36;;;;;;;9.18;7.88;;;;;;;;;;5058627;28;20458;-58
2022/04/29 06:42:16;;;;;;;7.75;6.80;;;;;;;;;;5051684;28;20048;-58
2022/04/29 06:47:55;;;;;;;8.50;6.85;;;;;;;;;;5065359;28;20040;-58
2022/04/29 06:53:26;;;;;;;9.88;7.40;;;;;;;;;;5074453;28;20086;-58
2022/04/29 06:55:52;;;;;;;;;;;;;;;;;;5057343;28;20131;-59
2022/04/29 06:58:44;;;;;;;7.20;6.50;;;;;;;;;;5067848;28;19911;-59
2022/04/29 07:01:15;;;;;;;10.27;9.00;;;;;;;;;;5051678;28;20041;-58
2022/04/29 07:03:47;;;;;;;10.27;8.65;;;;;;;;;;5074491;28;20483;-58
2022/04/29 07:06:26;;;;;;;8.43;7.10;;;;;;;;;;5075953;28;20040;-58
2022/04/29 07:09:16;;;;;;;8.65;7.47;;;;;;;;;;5114337;28;20032;-59
2022/04/29 07:12:33;;;;;;;;;;;;;;;;;;;;;
2022/04/29 07:14:54;;;;;;;8.48;7.35;;;;;;;;;;5012532;28;20042;-57
2022/04/29 07:20:30;;;;;;;11.88;8.27;;;;;;;;;;5109132;28;20442;-57
2022/04/29 07:23:14;;;;;;;8.93;6.75;;;;;;;;;;5097907;28;20491;-58
2022/04/29 07:29:20;;;;;;;9.55;7.05;;;;;;;;;;5112411;28;20031;-59
2022/04/29 07:44:12;;;;;;;10.05;7.35;;;;;;;;;;5116815;28;20039;-58
2022/04/29 07:47:08;;;;;;;8.02;6.35;;;;;;;;;;5048078;28;20513;-58
2022/04/29 07:52:42;;;;;;;7.78;6.97;;;;;;;;;;5053593;28;20035;-59
2022/04/29 07:55:44;;;;;;;;;;;;;;;;;;;;;
2022/04/29 07:58:55;;;;;;;7.38;6.28;;;;;;;;;;5029399;28;20417;-59
2022/04/29 08:04:31;;;;;;;9.07;6.65;;;;;;;;;;4974852;28;20050;-59
2022/04/29 08:10:45;;;;;;;10.90;6.53;;;;;;;;;;5013189;28;20067;-58
2022/04/29 08:13:31;;;;;;;8.27;6.47;;;;;;;;;;5052033;28;20056;-58
2022/04/29 08:16:15;;;;;;;7.13;6.18;;;;;;;;;;5054059;28;20025;-58
2022/04/29 08:25:16;;;;;;;11.20;7.25;;;;;;;;;;5115872;28;20085;-58
2022/04/29 08:31:25;;;;;;;;;;;;;;;;;;;;;
2022/04/29 08:34:00;;;;;;;;;;;;;;;;;;5117070;28;20114;-58
2022/04/29 08:40:40;;;;;;;7.18;5.07;;;;;;;;;;5013152;28;20037;-58
2022/04/29 08:46:19;;;;;;;8.63;6.22;;;;;;;;;;4936029;29;20043;-58
2022/04/29 08:52:22;;;;;;;8.68;6.05;;;;;;;;;;5042046;28;20037;-58
2022/04/29 09:00:49;;;;;;;7.05;5.53;;;;;;;;;;5051869;28;20036;-58
2022/04/29 09:03:23;;;;;;;7.38;5.43;;;;;;;;;;5051759;28;20032;-57
2022/04/29 09:06:28;;;;;;;6.18;4.57;;;;;;;;;;5038705;28;20485;-57
2022/04/29 09:09:35;;;;;;;7.40;4.70;;;;;;;;;;5052464;28;20021;-59
2022/04/29 09:12:26;;;;;;;7.63;4.70;;;;;;;;;;5050503;28;20576;-60
2022/04/29 09:15:28;;;;;;;11.38;4.97;;;;;;;;;;5087056;28;20036;-59
2022/04/29 09:18:07;;;;;;;8.18;4.85;;;;;;;;;;5029791;28;20426;-59
2022/04/29 09:20:46;;;;;;;7.65;4.15;;;;;;;;;;5031788;28;20064;-60
2022/04/29 09:26:45;;;;;;;4.53;3.88;;;;;;;;;;5023961;28;20025;-59
2022/04/29 09:35:57;;;;;;;6.15;4.95;;;;;;;;;;5085102;28;20035;-59
2022/04/29 09:42:17;;;;;;;6.18;4.22;;;;;;;;;;5006712;28;20060;-59
2022/04/29 09:45:18;;;;;;;;;;;;;;;;;;;;;
2022/04/29 09:48:09;;;;;;;6.50;3.88;;;;;;;;;;5078364;28;20043;-59
2022/04/29 09:50:36;;;;;;;;;;;;;;;;;;5075593;28;20482;-59
2022/04/29 09:53:23;;;;;;;5.03;3.53;;;;;;;;;;5075057;28;20276;-59
2022/04/29 09:56:12;;;;;;;3.95;3.13;;;;;;;;;;5070818;28;20060;-60
2022/04/29 09:59:28;;;;;;;4.40;3.60;;;;;;;;;;5094188;28;20025;-59
2022/04/29 10:06:01;;;;;;;;;;;;;;;;;;;;;
2022/04/29 10:09:01;;;;;;;5.03;3.78;;;;;;;;;;5034138;28;20033;-59
2022/04/29 10:11:33;;;;;;;4.75;2.47;;;;;;;;;;5001564;28;20134;-59
2022/04/29 10:14:11;;;;;;;5.40;3.25;;;;;;;;;;5052011;28;20494;-59
2022/04/29 10:23:00;;;;;;;4.35;3.85;;;;;;;;;;5051640;28;20052;-59
2022/04/29 10:25:57;;;;;;;4.80;3.47;;;;;;;;;;5051546;28;20045;-59
2022/04/29 10:28:51;;;;;;;4.10;2.97;;;;;;;;;;5071992;28;20082;-59
2022/04/29 10:31:55;;;;;;;4.38;3.40;;;;;;;;;;5080240;28;20043;-59
2022/04/29 10:35:15;;;;;;;5.35;3.13;;;;;;;;;;5033981;28;20038;-59
2022/04/29 10:38:07;;;;;;;5.07;4.00;;;;;;;;;;4977104;28;20098;-59
2022/04/29 10:40:40;;;;;;;3.78;3.22;;;;;;;;;;5034609;28;20026;-59
2022/04/29 10:43:40;;;;;;;3.97;3.03;;;;;;;;;;5051356;28;20041;-59
2022/04/29 10:46:27;;;;;;;;;;;;;;;;;;;;;
2022/04/29 10:51:52;;;;;;;5.38;2.95;;;;;;;;;;5053004;28;20025;-59
2022/04/29 10:54:37;;;;;;;2.58;1.92;;;;;;;;;;5054940;28;20033;-58
2022/04/29 11:00:45;;;;;;;3.45;2.53;;;;;;;;;;5104781;28;20089;-59
2022/04/29 11:12:49;;;;;;;4.32;2.90;;;;;;;;;;5116704;28;20249;-59
2022/04/29 11:15:43;;;;;;;3.40;2.80;;;;;;;;;;5098451;28;20549;-59
2022/04/29 11:18:27;;;;;;;4.75;3.03;;;;;;;;;;5076689;28;20032;-59
2022/04/29 11:21:00;;;;;;;3.20;2.63;;;;;;;;;;5112245;28;20028;-59
2022/04/29 11:26:41;;;;;;;4.68;2.92;;;;;;;;;;5116296;28;20046;-59
2022/04/29 11:29:10;;;;;;;4.43;3.35;;;;;;;;;;5116789;28;20019;-59
2022/04/29 11:31:57;;;;;;;;;;;;;;;;;;;;;
2022/04/29 11:34:32;;;;;;;3.97;3.15;;;;;;;;;;5116152;28;20038;-58
2022/04/29 11:40:16;;;;;;;4.07;3.65;;;;;;;;;;5053325;28;20033;-58
2022/04/29 11:43:05;;;;;;;5.15;3.45;;;;;;;;;;5039910;28;20500;-59
2022/04/29 11:52:01;;;;;;;3.95;3.33;;;;;;;;;;4975304;28;20034;-59
2022/04/29 11:54:44;;;;;;;7.13;6.20;;;;;;;;;;4993797;28;20142;-59
2022/04/29 11:57:42;;;;;;;8.00;4.82;;;;;;;;;;5070967;28;20047;-58
2022/04/29 12:03:26;;;;;;;3.63;3.17;;;;;;;;;;5084447;28;20035;-59
2022/04/29 12:06:20;;;;;;;;;;;;;;;;;;;;;
2022/04/29 12:08:58;;;;;;;5.03;4.43;;;;;;;;;;5091723;28;20038;-59
2022/04/29 12:11:59;;;;;;;6.57;3.58;;;;;;;;;;5095611;28;20115;-59
2022/04/29 12:14:43;;;;;;;4.15;3.00;;;;;;;;;;5092362;28;20040;-59
2022/04/29 12:17:31;;;;;;;4.40;3.33;;;;;;;;;;5077469;28;20378;-59
2022/04/29 12:22:52;;;;;;;3.25;2.75;;;;;;;;;;5065947;28;20034;-59
2022/04/29 12:25:35;;;;;;;5.38;3.60;;;;;;;;;;5094121;28;20397;-59
2022/04/29 12:28:16;;;;;;;6.32;3.83;;;;;;;;;;5095164;28;20035;-59
2022/04/29 12:36:47;;;;;;;4.10;2.97;;;;;;;;;;5095594;28;20078;-60
2022/04/29 12:39:24;;;;;;;5.35;4.05;;;;;;;;;;5076712;28;20458;-60
2022/04/29 12:42:08;;;;;;;4.43;3.22;;;;;;;;;;5096661;28;20560;-60
2022/04/29 12:53:58;;;;;;;4.20;3.80;;;;;;;;;;4982794;28;20525;-60
2022/04/29 12:56:51;;;;;;;4.70;3.85;;;;;;;;;;5115935;28;20023;-60
2022/04/29 12:59:39;;;;;;;4.85;3.78;;;;;;;;;;5115313;28;20028;-60
2022/04/29 13:05:32;;;;;;;4.55;3.67;;;;;;;;;;5126288;28;20043;-60
2022/04/29 13:11:19;;;;;;;6.65;3.90;;;;;;;;;;5121734;28;20102;-60
2022/04/29 13:19:30;;;;;;;6.10;3.90;;;;;;;;;;5126010;28;20102;-60
2022/04/29 13:22:12;;;;;;;3.67;2.63;;;;;;;;;;5108157;28;20015;-60
2022/04/29 13:25:00;;;;;;;4.15;3.30;;;;;;;;;;5084487;28;20426;-60
2022/04/29 13:30:20;;;;;;;5.65;3.15;;;;;;;;;;5067487;28;20096;-60
2022/04/29 13:33:13;;;;;;;5.45;3.50;;;;;;;;;;5063993;28;20064;-60
2022/04/29 13:35:44;;;;;;;5.38;4.13;;;;;;;;;;5082693;28;20044;-60
2022/04/29 13:38:35;;;;;;;4.68;3.55;;;;;;;;;;5082415;28;20031;-60
2022/04/29 13:44:19;;;;;;;4.78;3.15;;;;;;;;;;5081268;28;20118;-60
2022/04/29 13:47:10;;;;;;;5.25;3.92;;;;;;;;;;5075254;28;20052;-60
2022/04/29 13:49:46;;;;;;;6.38;4.00;;;;;;;;;;5061178;28;20044;-60
2022/04/29 13:55:16;;;;;;;3.33;2.88;;;;;;;;;;5098661;28;20050;-59
2022/04/29 13:58:06;;;;;;;4.82;3.10;;;;;;;;;;5109099;28;20031;-59
2022/04/29 14:01:00;;;;;;;3.87;2.90;;;;;;;;;;5105482;28;20031;-59
2022/04/29 14:03:49;;;;;;;;;;;;;;;;;;;;;
2022/04/29 14:12:11;;;;;;;6.13;4.10;;;;;;;;;;5132164;28;20034;-59
2022/04/29 14:14:47;;;;;;;5.72;3.83;;;;;;;;;;5132502;28;20016;-59
2022/04/29 14:17:38;;;;;;;4.57;4.00;;;;;;;;;;5114471;28;20418;-58
2022/04/29 14:23:17;;;;;;;4.65;3.70;;;;;;;;;;5121106;28;20028;-59
2022/04/29 14:26:11;;;;;;;;;;;;;;;;;;;;;
2022/04/29 14:28:43;;;;;;;5.07;3.58;;;;;;;;;;5093482;28;20058;-59
2022/04/29 14:31:43;;;;;;;5.00;3.10;;;;;;;;;;5107086;28;20057;-59
2022/04/29 14:37:26;;;;;;;4.55;4.00;;;;;;;;;;5130852;28;20058;-59
2022/04/29 14:40:05;;;;;;;6.53;4.10;;;;;;;;;;5130446;28;20024;-59
2022/04/29 14:42:55;;;;;;;4.60;3.72;;;;;;;;;;5130122;28;20043;-59
2022/04/29 14:45:46;;;;;;;3.78;3.28;;;;;;;;;;5117793;28;20092;-59
2022/04/29 14:54:02;;;;;;;4.55;3.88;;;;;;;;;;5129351;28;20036;-59
2022/04/29 14:56:31;;;;;;;6.18;3.05;;;;;;;;;;5105864;28;20034;-58
2022/04/29 14:59:20;;;;;;;;;;;;;;;;;;;;;
2022/04/29 15:02:13;;;;;;;4.25;3.65;;;;;;;;;;5125856;28;20110;-58
2022/04/29 15:04:45;;;;;;;5.18;3.58;;;;;;;;;;5104758;28;20036;-58
2022/04/29 15:07:31;;;;;;;4.13;3.42;;;;;;;;;;5117341;28;20031;-59
2022/04/29 15:16:06;;;;;;;4.63;3.38;;;;;;;;;;5117565;28;20084;-58
2022/04/29 15:25:02;;;;;;;6.07;3.20;;;;;;;;;;5120771;28;20039;-58
2022/04/29 15:27:52;;;;;;;;;;;;;;;;;;;;;
2022/04/29 15:30:46;;;;;;;4.95;3.58;;;;;;;;;;5100764;28;20115;-58
2022/04/29 15:34:00;;;;;;;6.35;3.63;;;;;;;;;;5059254;28;20027;-59
2022/04/29 15:45:35;;;;;;;5.80;3.45;;;;;;;;;;5099165;28;20123;-58
2022/04/29 15:55:01;;;;;;;4.20;3.15;;;;;;;;;;5039155;28;20584;-58
2022/04/29 15:57:45;;;;;;;5.88;4.32;;;;;;;;;;5089870;28;20145;-58
2022/04/29 16:03:52;;;;;;;6.40;4.10;;;;;;;;;;5017225;28;20511;-58
2022/04/29 16:07:09;;;;;;;6.78;4.10;;;;;;;;;;5099622;28;20038;-58
2022/04/29 16:10:01;;;;;;;;;;;;;;;;;;;;;
2022/04/29 16:12:44;;;;;;;6.80;3.88;;;;;;;;;;5072326;28;20424;-58
2022/04/29 16:15:28;;;;;;;6.75;3.85;;;;;;;;;;5053734;28;20124;-58
2022/04/29 16:21:17;;;;;;;5.13;3.47;;;;;;;;;;5048648;28;20063;-59
2022/04/29 16:27:07;;;;;;;11.18;6.78;;;;;;;;;;5062847;28;20418;-59
2022/04/29 16:32:40;;;;;;;4.78;3.92;;;;;;;;;;5061313;28;20039;-59
2022/04/29 16:38:16;;;;;;;4.70;3.67;;;;;;;;;;5001821;28;20094;-59
2022/04/29 16:41:15;;;;;;;4.13;3.50;;;;;;;;;;5000995;28;20038;-59
2022/04/29 16:44:07;;;;;;;;;;;;;;;;;;;;;
2022/04/29 16:46:36;;;;;;;5.03;3.67;;;;;;;;;;5087821;28;20164;-59
2022/04/29 16:49:10;;;;;;;5.40;3.42;;;;;;;;;;5085356;28;20032;-57
2022/04/29 16:52:01;;;;;;;6.03;4.10;;;;;;;;;;5078648;28;20169;-59
2022/04/29 16:54:43;;;;;;;;;;;;;;;;;;;;;
2022/04/29 17:03:13;;;;;;;4.00;3.47;;;;;;;;;;5041175;28;20120;-58
2022/04/29 17:05:49;;;;;;;5.97;4.75;;;;;;;;;;5041956;28;20148;-58
2022/04/29 17:09:09;;;;;;;;;;;;;;;;;;;;;
2022/04/29 17:11:51;;;;;;;4.30;3.30;;;;;;;;;;5043381;28;20443;-58
2022/04/29 17:14:37;;;;;;;3.88;2.88;;;;;;;;;;5024777;28;20029;-58
2022/04/29 17:17:19;;;;;;;4.80;3.28;;;;;;;;;;5025386;28;20026;-58
2022/04/29 17:19:56;;;;;;;4.18;3.50;;;;;;;;;;5040349;28;20391;-57
2022/04/29 17:22:45;;;;;;;3.90;2.97;;;;;;;;;;5037439;28;20037;-58
2022/04/29 17:25:40;;;;;;;4.63;3.42;;;;;;;;;;5037685;28;20527;-58
2022/04/29 17:28:54;;;;;;;7.47;4.03;;;;;;;;;;5095196;28;20425;-58
2022/04/29 17:31:21;;;;;;;3.53;2.72;;;;;;;;;;5102026;28;20027;-61
2022/04/29 17:33:58;;;;;;;5.10;3.83;;;;;;;;;;5093130;28;20032;-59
2022/04/29 17:36:45;;;;;;;5.07;3.42;;;;;;;;;;5101935;28;20020;-58
2022/04/29 17:45:28;;;;;;;5.93;3.97;;;;;;;;;;5081523;28;20511;-59
2022/04/29 17:48:02;;;;;;;4.80;3.47;;;;;;;;;;5098407;28;20385;-59
2022/04/29 17:50:47;;;;;;;6.03;4.43;;;;;;;;;;5071375;28;20029;-59
2022/04/29 17:53:42;;;;;;;5.70;4.20;;;;;;;;;;5071779;28;20052;-59
2022/04/29 17:56:34;;;;;;;4.93;3.70;;;;;;;;;;5070161;28;20088;-59
2022/04/29 17:59:19;;;;;;;5.60;3.72;;;;;;;;;;5062732;28;20043;-59
2022/04/29 18:02:07;;;;;;;7.30;3.97;;;;;;;;;;5073320;28;20020;-59
2022/04/29 18:04:43;;;;;;;5.38;4.00;;;;;;;;;;5070963;28;20048;-59
2022/04/29 18:07:24;;;;;;;4.70;4.22;;;;;;;;;;5073435;28;20029;-60
2022/04/29 18:10:06;;;;;;;6.03;4.80;;;;;;;;;;5075620;28;20685;-59
2022/04/29 18:12:44;;;;;;;4.80;4.32;;;;;;;;;;5076255;28;20024;-59
2022/04/29 18:15:43;;;;;;;5.03;3.85;;;;;;;;;;5073827;28;20041;-59
2022/04/29 18:18:35;;;;;;;5.18;4.25;;;;;;;;;;5075668;28;20020;-59
2022/04/29 18:21:25;;;;;;;5.90;4.68;;;;;;;;;;5046772;28;20036;-59
2022/04/29 18:24:12;;;;;;;5.40;4.03;;;;;;;;;;5072309;28;20043;-60
2022/04/29 18:30:01;;;;;;;5.55;4.70;;;;;;;;;;5081855;28;20373;-58
2022/04/29 18:32:56;;;;;;;5.75;4.05;;;;;;;;;;5066793;28;20024;-57
2022/04/29 18:38:25;;;;;;;5.55;4.85;;;;;;;;;;5103377;28;20560;-60
2022/04/29 18:41:09;;;;;;;6.05;4.63;;;;;;;;;;5114648;28;20028;-59
2022/04/29 18:43:54;;;;;;;8.02;5.25;;;;;;;;;;5089548;28;20071;-59
2022/04/29 18:46:38;;;;;;;5.97;5.03;;;;;;;;;;5094322;28;20033;-59
2022/04/29 18:49:28;;;;;;;4.55;3.80;;;;;;;;;;5060153;28;20046;-59
2022/04/29 18:52:03;;;;;;;4.72;4.25;;;;;;;;;;5102437;28;20036;-59
2022/04/29 18:55:01;;;;;;;6.32;5.03;;;;;;;;;;5103110;28;20451;-59
2022/04/29 19:01:03;;;;;;;4.60;4.20;;;;;;;;;;5100956;28;20032;-59
2022/04/29 19:03:47;;;;;;;5.07;3.97;;;;;;;;;;5110346;28;20039;-62
2022/04/29 19:06:47;;;;;;;5.55;4.32;;;;;;;;;;5108966;28;20024;-59
2022/04/29 19:09:22;;;;;;;5.38;4.15;;;;;;;;;;5110124;28;20025;-60
2022/04/29 19:12:01;;;;;;;6.15;4.60;;;;;;;;;;5109345;28;20024;-59
2022/04/29 19:14:34;;;;;;;5.20;3.70;;;;;;;;;;5091348;28;20027;-58
2022/04/29 19:17:21;;;;;;;8.38;4.47;;;;;;;;;;5109028;28;20095;-59
2022/04/29 19:20:07;;;;;;;4.45;4.05;;;;;;;;;;5104301;28;20035;-57
2022/04/29 19:22:50;;;;;;;4.38;3.45;;;;;;;;;;5110417;28;20059;-57
2022/04/29 19:25:44;;;;;;;5.07;4.07;;;;;;;;;;5105681;28;20036;-57
2022/04/29 19:28:36;;;;;;;5.13;4.03;;;;;;;;;;5091522;28;20511;-57
2022/04/29 19:31:19;;;;;;;;;;;;;;;;;;;;;
2022/04/29 19:34:25;;;;;;;;;;;;;;;;;;;;;
2022/04/29 19:37:17;;;;;;;5.05;4.22;;;;;;;;;;5097994;28;20067;-57
2022/04/29 19:42:54;;;;;;;4.93;4.07;;;;;;;;;;5105739;28;20048;-59
2022/04/29 19:45:39;;;;;;;5.32;3.70;;;;;;;;;;5123169;28;20082;-59
2022/04/29 19:48:19;;;;;;;4.43;3.88;;;;;;;;;;5128830;28;20024;-59
2022/04/29 19:54:14;;;;;;;4.70;3.80;;;;;;;;;;5129687;28;20036;-59
2022/04/29 19:59:10;;;;;;;6.80;4.33;;;;;;;;;;5129032;28;20019;-59
2022/04/29 19:59:46;;;;;;;4.20;3.50;;;;;;;;;;5106831;28;20381;-59
2022/04/29 20:08:51;;;;;;;5.45;4.63;;;;;;;;;;5088849;28;20086;-59
2022/04/29 20:11:38;;;;;;;5.68;4.00;;;;;;;;;;4970860;28;20035;-58
2022/04/29 20:14:39;;;;;;;;;;;;;;;;;;;;;
2022/04/29 20:17:15;;;;;;;5.63;4.57;;;;;;;;;;5082624;28;20072;-58
2022/04/29 20:20:08;;;;;;;5.88;4.45;;;;;;;;;;5070445;28;20043;-58
2022/04/29 20:22:43;;;;;;;7.47;4.57;;;;;;;;;;5052448;28;20041;-58
2022/04/29 20:25:31;;;;;;;6.63;4.20;;;;;;;;;;5067901;28;20037;-58
2022/04/29 20:28:10;;;;;;;7.43;4.50;;;;;;;;;;5067675;28;20041;-59
2022/04/29 20:30:47;;;;;;;5.63;3.90;;;;;;;;;;5067565;28;20060;-58
2022/04/29 20:33:15;;;;;;;5.20;4.68;;;;;;;;;;5045442;28;20090;-59
2022/04/29 20:44:34;;;;;;;7.25;5.55;;;;;;;;;;5007205;28;20061;-58
2022/04/29 20:47:30;;;;;;;5.20;4.70;;;;;;;;;;5008120;28;20535;-58
2022/04/29 20:50:17;;;;;;;7.07;5.63;;;;;;;;;;4956247;28;20035;-59
2022/04/29 20:56:26;;;;;;;7.07;6.13;;;;;;;;;;5007359;28;20065;-58
2022/04/29 20:59:02;;;;;;;6.35;5.18;;;;;;;;;;5005939;28;20098;-61
2022/04/29 21:02:00;;;;;;;;;;;;;;;;;;;;;
2022/04/29 21:04:33;;;;;;;6.90;5.63;;;;;;;;;;5128181;28;20067;-63
2022/04/29 21:07:16;;;;;;;7.18;4.78;;;;;;;;;;5128564;28;20031;-60
2022/04/29 21:10:08;;;;;;;;;;;;;;;;;;;;;
2022/04/29 21:15:46;;;;;;;8.35;5.22;;;;;;;;;;5114399;28;20047;-59
2022/04/29 21:27:40;;;;;;;8.45;4.85;;;;;;;;;;5084075;28;20111;-58
2022/04/29 21:39:28;;;;;;;;;;;;;;;;;;;;;
2022/04/29 21:42:07;;;;;;;5.78;4.85;;;;;;;;;;5103958;28;20059;-59
2022/04/29 21:45:00;;;;;;;6.43;5.15;;;;;;;;;;5110140;28;20048;-58
2022/04/29 21:48:00;;;;;;;6.22;5.18;;;;;;;;;;5128764;28;20047;-58
2022/04/29 21:50:52;;;;;;;6.13;4.32;;;;;;;;;;5128050;28;20040;-59
2022/04/29 21:56:46;;;;;;;6.63;5.07;;;;;;;;;;5102682;28;20039;-59
2022/04/29 22:02:40;;;;;;;8.02;5.63;;;;;;;;;;5114602;28;20039;-59
2022/04/29 22:05:17;;;;;;;6.30;5.07;;;;;;;;;;5113407;28;20032;-59
2022/04/29 22:07:46;;;;;;;6.85;5.15;;;;;;;;;;5110711;28;20040;-58
2022/04/29 22:10:26;;;;;;;;;;;;;;;;;;;;;
2022/04/29 22:12:59;;;;;;;;;;;;;;;;;;5129465;28;20051;-58
2022/04/29 22:15:38;;;;;;;6.75;5.95;;;;;;;;;;5129227;28;19904;-58
2022/04/29 22:21:43;;;;;;;5.53;5.03;;;;;;;;;;5129056;28;20057;-59
2022/04/29 22:24:15;;;;;;;6.35;5.47;;;;;;;;;;5129010;28;20032;-58
2022/04/29 22:27:09;;;;;;;6.95;5.47;;;;;;;;;;5129822;28;20035;-58
2022/04/29 22:35:53;;;;;;;7.47;6.68;;;;;;;;;;5104077;28;20027;-58
2022/04/29 22:38:51;;;;;;;8.15;6.32;;;;;;;;;;5094979;28;20385;-58
2022/04/29 22:47:40;;;;;;;7.70;5.63;;;;;;;;;;5049679;28;20042;-58
2022/04/29 22:50:37;;;;;;;7.30;5.85;;;;;;;;;;5050460;28;20098;-57
2022/04/29 22:53:07;;;;;;;6.28;5.68;;;;;;;;;;5111461;28;20020;-59
2022/04/29 22:58:47;;;;;;;7.10;6.15;;;;;;;;;;5069217;28;20037;-57
2022/04/29 23:01:58;;;;;;;6.72;6.00;;;;;;;;;;5108698;28;20028;-59
2022/04/29 23:07:44;;;;;;;6.70;6.00;;;;;;;;;;5097977;28;20035;-58
2022/04/29 23:10:21;;;;;;;7.10;6.15;;;;;;;;;;5111978;28;20278;-57
2022/04/29 23:15:51;;;;;;;9.63;6.85;;;;;;;;;;5111663;28;20086;-58
2022/04/29 23:21:32;;;;;;;5.70;5.20;;;;;;;;;;5111314;28;20413;-58
2022/04/29 23:24:11;;;;;;;5.53;4.78;;;;;;;;;;5111403;28;20028;-59
2022/04/29 23:26:57;;;;;;;10.05;5.97;;;;;;;;;;5111775;28;20024;-59
2022/04/29 23:29:27;;;;;;;7.38;6.25;;;;;;;;;;5111418;28;20028;-55
2022/04/29 23:34:59;;;;;;;6.30;5.47;;;;;;;;;;5105506;28;20040;-56
2022/04/29 23:37:39;;;;;;;7.38;6.47;;;;;;;;;;5111116;28;20052;-56
2022/04/29 23:40:28;;;;;;;7.43;5.97;;;;;;;;;;5110713;28;20016;-56
2022/04/29 23:43:03;;;;;;;6.07;5.18;;;;;;;;;;5109323;28;20042;-55
2022/04/29 23:45:46;;;;;;;6.72;6.03;;;;;;;;;;5090451;28;20070;-55
2022/04/29 23:48:40;;;;;;;8.07;6.03;;;;;;;;;;5111042;28;20055;-55
2022/04/29 23:51:15;;;;;;;6.43;5.75;;;;;;;;;;5111145;28;20020;-56
2022/04/29 23:53:45;;;;;;;7.85;5.07;;;;;;;;;;5108700;28;20032;-58
2022/04/29 23:56:30;;;;;;;6.43;5.15;;;;;;;;;;5110506;28;20016;-59
2022/04/29 23:59:29;;;;;;;8.30;6.07;;;;;;;;;;5091971;28;20494;-58
